Time;durP1;ratioP1;P1;durP2;ratioP2;P2;SDS_P1;SDS_P2;PMS_P1;PMS_P2;Temp;Humidity;BMP_temperature;BMP_pressure;BME280_temperature;BME280_humidity;BME280_pressure;Samples;Min_cycle;Max_cycle;Signal;HPM_P1;HPM_P2
2022/11/09 00:00:37;;;;;;;;;40.75;31.25;;;;;14.53;72.69;100346.38;5034229;28;45456;-68
2022/11/09 00:03:03;;;;;;;;;9.67;7.67;;;;;14.55;72.25;100344.59;5027708;28;46396;-65
2022/11/09 00:05:29;;;;;;;;;5.00;4.00;;;;;14.56;72.24;100356.00;5028412;28;45416;-65
2022/11/09 00:07:54;;;;;;;;;4.67;3.00;;;;;14.59;72.39;100361.19;5034286;28;47646;-65
2022/11/09 00:10:20;;;;;;;;;6.67;4.67;;;;;14.56;72.71;100351.59;5033780;28;45512;-65
2022/11/09 00:12:46;;;;;;;;;5.67;4.00;;;;;14.52;72.40;100352.53;5033795;28;45378;-65
2022/11/09 00:15:11;;;;;;;;;8.67;4.33;;;;;14.50;73.07;100350.81;5035779;28;45415;-67
2022/11/09 00:17:37;;;;;;;;;5.67;3.33;;;;;14.57;72.46;100370.94;5053888;28;45354;-65
2022/11/09 00:20:03;;;;;;;;;2.67;2.67;;;;;14.57;72.72;100365.66;5035212;28;45728;-69
2022/11/09 00:22:30;;;;;;;;;5.00;3.00;;;;;14.59;72.38;100367.38;5034455;28;45458;-65
2022/11/09 00:24:55;;;;;;;;;4.00;3.00;;;;;14.69;72.86;100380.31;5034892;28;45503;-66
2022/11/09 00:27:21;;;;;;;;;4.00;4.00;;;;;14.75;73.50;100377.56;5033843;28;45483;-64
2022/11/09 00:29:47;;;;;;;;;7.67;3.00;;;;;14.62;73.38;100364.66;5033738;28;45492;-66
2022/11/09 00:32:12;;;;;;;;;4.33;4.00;;;;;14.60;74.02;100361.19;5035907;28;45394;-67
2022/11/09 00:34:38;;;;;;;;;4.33;3.00;;;;;14.59;74.09;100345.38;5035348;28;45453;-65
2022/11/09 00:37:03;;;;;;;;;3.67;2.33;;;;;14.46;74.40;100328.06;5032168;28;45463;-64
2022/11/09 00:39:29;;;;;;;;;3.00;3.00;;;;;14.43;74.57;100329.88;5053035;28;45633;-67
2022/11/09 00:41:54;;;;;;;;;13.00;5.00;;;;;14.45;74.73;100327.22;5037208;28;45568;-66
2022/11/09 00:44:20;;;;;;;;;5.33;3.00;;;;;14.40;74.83;100332.59;5032597;28;45414;-67
2022/11/09 00:46:45;;;;;;;;;7.33;4.00;;;;;14.25;74.95;100324.97;5034646;28;46676;-66
2022/11/09 00:49:11;;;;;;;;;3.33;3.00;;;;;14.24;74.97;100327.63;5036497;28;45418;-67
2022/11/09 00:51:36;;;;;;;;;2.00;2.00;;;;;14.24;75.01;100323.25;5037282;28;45376;-69
2022/11/09 00:54:02;;;;;;;;;3.00;3.00;;;;;14.26;75.40;100318.81;5033884;28;45487;-65
2022/11/09 00:56:27;;;;;;;;;5.00;3.00;;;;;14.23;75.63;100323.25;5034170;28;45507;-66
2022/11/09 00:58:57;;;;;;;;;3.00;3.00;;;;;14.17;75.79;100319.84;5033844;28;45317;-68
2022/11/09 01:01:22;;;;;;;;;3.00;3.00;;;;;14.17;75.77;100324.25;5033608;28;45502;-65
2022/11/09 01:03:48;;;;;;;;;2.33;2.33;;;;;14.12;75.25;100315.59;5052294;28;45618;-67
2022/11/09 01:06:19;;;;;;;;;3.67;3.00;;;;;14.22;74.92;100327.66;5037643;28;45357;-65
2022/11/09 01:08:45;;;;;;;;;3.00;3.00;;;;;14.28;74.93;100343.34;5035801;28;45530;-66
2022/11/09 01:11:12;;;;;;;;;3.00;2.00;;;;;14.29;74.63;100345.09;5032492;28;45414;-65
2022/11/09 01:13:37;;;;;;;;;1.00;1.00;;;;;14.34;74.44;100345.88;5033813;28;45973;-64
2022/11/09 01:16:06;;;;;;;;;2.33;2.00;;;;;14.31;74.39;100363.50;5032793;28;45508;-65
2022/11/09 01:18:31;;;;;;;;;1.00;1.00;;;;;14.27;74.35;100356.56;5029745;28;45663;-66
2022/11/09 01:20:57;;;;;;;;;2.33;1.67;;;;;14.25;74.14;100340.78;5051457;28;45546;-66
2022/11/09 01:23:22;;;;;;;;;2.67;2.00;;;;;14.37;74.32;100361.59;5036658;28;45463;-65
2022/11/09 01:25:48;;;;;;;;;2.00;2.00;;;;;14.29;73.71;100341.59;5033134;28;46418;-66
2022/11/09 01:28:13;;;;;;;;;3.00;1.00;;;;;14.41;74.00;100372.97;5034340;28;45639;-65
2022/11/09 01:30:41;;;;;;;;;3.00;2.33;;;;;14.30;74.18;100374.94;5047100;28;45291;-66
2022/11/09 01:33:09;;;;;;;;;4.33;2.00;;;;;14.27;73.93;100377.63;5032864;28;45409;-67
2022/11/09 01:35:37;;;;;;;;;1.67;0.67;;;;;14.17;74.22;100369.91;5033102;28;45370;-65
2022/11/09 01:38:04;;;;;;;;;4.00;2.00;;;;;14.18;74.81;100383.94;5037703;28;45431;-69
2022/11/09 01:40:32;;;;;;;;;2.33;2.33;;;;;14.05;75.05;100377.13;5036031;28;45402;-65
2022/11/09 01:42:58;;;;;;;;;3.00;1.00;;;;;14.09;74.71;100392.00;5034281;28;45602;-67
2022/11/09 01:45:29;;;;;;;;;1.33;1.33;;;;;13.84;74.72;100358.22;5033171;28;45361;-67
2022/11/09 01:48:08;;;;;;;;;3.67;3.67;;;;;14.02;74.50;100383.31;5033430;28;45617;-66
2022/11/09 01:50:57;;;;;;;;;4.33;2.00;;;;;14.10;74.49;100396.38;5032808;28;45465;-65
2022/11/09 01:53:28;;;;;;;;;2.67;2.67;;;;;14.05;74.72;100400.84;5032900;28;45662;-67
2022/11/09 01:55:58;;;;;;;;;2.00;2.00;;;;;14.04;74.73;100396.47;5031449;28;46731;-67
2022/11/09 01:58:29;;;;;;;;;1.33;1.33;;;;;13.82;74.89;100362.63;5033133;28;45441;-67
2022/11/09 02:00:57;;;;;;;;;6.00;1.67;;;;;14.07;74.32;100407.84;5033079;28;45657;-66
2022/11/09 02:03:34;;;;;;;;;2.67;2.67;;;;;13.98;74.12;100393.06;5034061;28;45568;-68
2022/11/09 02:06:04;;;;;;;;;1.33;1.33;;;;;14.00;74.13;100414.13;5035600;28;46807;-68
2022/11/09 02:08:30;;;;;;;;;2.67;2.00;;;;;13.91;74.14;100394.06;5036050;28;45366;-68
2022/11/09 02:11:07;;;;;;;;;1.33;1.33;;;;;13.95;74.15;100411.56;5037183;28;45456;-67
2022/11/09 02:13:35;;;;;;;;;3.00;1.67;;;;;13.68;74.50;100372.53;5033298;28;45370;-68
2022/11/09 02:16:01;;;;;;;;;4.67;2.00;;;;;13.92;74.17;100416.84;5034155;28;45469;-69
2022/11/09 02:18:27;;;;;;;;;2.00;1.00;;;;;13.87;74.85;100402.91;5052693;28;45373;-68
2022/11/09 02:20:56;;;;;;;;;3.00;3.00;;;;;13.94;74.42;100419.47;5034678;28;45372;-69
2022/11/09 02:23:24;;;;;;;;;3.33;2.67;;;;;13.76;74.49;100402.19;5032931;28;45741;-69
2022/11/09 02:25:58;;;;;;;;;4.33;1.67;;;;;13.84;74.15;100408.22;5030323;28;45457;-66
2022/11/09 02:28:25;;;;;;;;;7.67;2.00;;;;;13.86;74.26;100397.69;5032418;28;45496;-68
2022/11/09 02:30:53;;;;;;;;;3.00;1.00;;;;;13.90;74.17;100408.09;5032913;28;45445;-65
2022/11/09 02:33:19;;;;;;;;;2.33;1.00;;;;;13.94;74.05;100412.44;5036619;28;45490;-64
2022/11/09 02:35:44;;;;;;;;;2.67;2.00;;;;;13.85;73.50;100394.16;5037090;28;46141;-65
2022/11/09 02:38:12;;;;;;;;;5.33;1.00;;;;;13.89;73.82;100402.88;5036459;28;45335;-65
2022/11/09 02:40:41;;;;;;;;;4.00;2.33;;;;;13.79;73.70;100413.56;5037194;28;45425;-65
2022/11/09 02:43:09;;;;;;;;;2.00;2.00;;;;;13.77;73.72;100414.50;5039202;28;45370;-66
2022/11/09 02:45:35;;;;;;;;;0.67;0.67;;;;;13.71;73.62;100407.53;5036096;28;46134;-66
2022/11/09 02:48:01;;;;;;;;;1.00;1.00;;;;;13.79;73.20;100421.47;5034946;28;45393;-65
2022/11/09 02:50:27;;;;;;;;;0.67;0.67;;;;;13.75;73.28;100411.88;5035968;28;45771;-65
2022/11/09 02:52:52;;;;;;;;;1.00;1.00;;;;;13.62;73.14;100404.19;5035887;28;45481;-65
2022/11/09 02:55:18;;;;;;;;;4.00;1.00;;;;;13.63;72.96;100409.44;5036579;28;46260;-67
2022/11/09 02:57:44;;;;;;;;;0.00;0.00;;;;;13.63;73.37;100424.38;5038466;28;45666;-65
2022/11/09 03:00:10;;;;;;;;;2.00;1.00;;;;;13.58;73.10;100416.53;5037679;28;45585;-65
2022/11/09 03:02:36;;;;;;;;;2.00;0.00;;;;;13.68;72.76;100431.28;5036238;28;45534;-64
2022/11/09 03:05:01;;;;;;;;;2.00;0.00;;;;;13.71;72.34;100427.72;5038986;28;45366;-65
2022/11/09 03:07:27;;;;;;;;;0.00;0.00;;;;;13.71;72.41;100438.25;5037978;28;45734;-67
2022/11/09 03:09:52;;;;;;;;;1.00;1.00;;;;;13.62;72.44;100418.25;5040130;28;45333;-64
2022/11/09 03:12:27;;;;;;;;;0.00;0.00;;;;;13.66;71.99;100434.84;5053491;28;45422;-65
2022/11/09 03:14:54;;;;;;;;;1.33;0.00;;;;;13.55;71.70;100435.00;5051150;28;47879;-66
2022/11/09 03:17:33;;;;;;;;;1.00;1.00;;;;;13.61;72.13;100445.44;5038102;28;45476;-65
2022/11/09 03:19:59;;;;;;;;;0.33;0.33;;;;;13.56;72.14;100429.72;5040057;28;45417;-64
2022/11/09 03:22:24;;;;;;;;;2.00;0.50;;;;;13.66;72.00;100443.59;5039763;28;45512;-66
2022/11/09 03:24:50;;;;;;;;;0.00;0.00;;;;;13.55;71.55;100422.72;5039598;28;45573;-66
2022/11/09 03:27:16;;;;;;;;;1.00;0.67;;;;;13.56;72.51;100434.09;5036843;28;45628;-67
2022/11/09 03:29:42;;;;;;;;;35.00;29.25;;;;;13.61;72.25;100437.53;5035491;28;45480;-66
2022/11/09 03:32:08;;;;;;;;;54.25;44.25;;;;;13.62;72.06;100438.41;5035704;28;45581;-66
2022/11/09 03:34:34;;;;;;;;;26.75;22.00;;;;;13.64;72.01;100441.88;5034771;28;46000;-65
2022/11/09 03:36:59;;;;;;;;;9.33;5.67;;;;;13.63;71.76;100434.88;5036437;28;45474;-65
2022/11/09 03:39:25;;;;;;;;;2.33;2.00;;;;;13.62;71.39;100441.03;5039651;28;45390;-66
2022/11/09 03:41:50;;;;;;;;;1.00;1.00;;;;;13.52;71.77;100456.09;5036945;28;45292;-66
2022/11/09 03:44:16;;;;;;;;;0.00;0.00;;;;;13.50;72.00;100448.22;5049781;28;46873;-67
2022/11/09 03:46:41;;;;;;;;;1.00;0.00;;;;;13.28;72.09;100413.44;5034456;28;45516;-66
2022/11/09 03:49:07;;;;;;;;;0.00;0.00;;;;;13.45;72.03;100444.78;5035100;28;45389;-65
2022/11/09 03:51:33;;;;;;;;;1.00;0.00;;;;;13.39;71.43;100441.38;5034897;28;45420;-65
2022/11/09 03:53:58;;;;;;;;;0.67;0.00;;;;;13.36;71.79;100445.78;5034909;28;47734;-66
2022/11/09 03:56:24;;;;;;;;;1.00;0.00;;;;;13.32;71.75;100441.47;5039024;28;45555;-66
2022/11/09 03:58:49;;;;;;;;;0.00;0.00;;;;;13.30;71.85;100440.59;5039243;28;45444;-65
2022/11/09 04:01:15;;;;;;;;;0.00;0.00;;;;;13.27;71.94;100445.91;5039302;28;45447;-65
2022/11/09 04:03:40;;;;;;;;;0.00;0.00;;;;;13.28;72.15;100460.78;5037841;28;45477;-65
2022/11/09 04:06:06;;;;;;;;;0.00;0.00;;;;;13.27;72.06;100464.34;5033565;28;45385;-64
2022/11/09 04:08:32;;;;;;;;;0.00;0.00;;;;;13.17;72.08;100446.91;5036354;28;45491;-65
2022/11/09 04:10:57;;;;;;;;;0.00;0.00;;;;;13.04;72.34;100434.81;5037314;28;45356;-66
2022/11/09 04:13:23;;;;;;;;;0.00;0.00;;;;;13.18;72.49;100468.81;5033349;28;46944;-65
2022/11/09 04:15:48;;;;;;;;;1.67;0.00;;;;;13.09;72.70;100456.66;5034474;28;45580;-65
2022/11/09 04:18:16;;;;;;;;;0.67;0.67;;;;;13.15;72.44;100467.97;5034039;28;45433;-65
2022/11/09 04:20:42;;;;;;;;;0.00;0.00;;;;;13.13;72.70;100475.00;5033679;28;45572;-65
2022/11/09 04:23:16;;;;;;;;;1.00;1.00;;;;;13.14;72.84;100467.97;5034475;28;45455;-66
2022/11/09 04:25:45;;;;;;;;;0.00;0.00;;;;;13.02;72.13;100455.84;5037284;28;45866;-68
2022/11/09 04:28:11;;;;;;;;;0.00;0.00;;;;;13.14;72.89;100481.13;5037957;28;45377;-66
2022/11/09 04:30:37;;;;;;;;;0.00;0.00;;;;;13.04;73.08;100474.25;5050121;28;45614;-65
2022/11/09 04:33:04;;;;;;;;;2.00;0.00;;;;;13.00;72.79;100473.38;5034505;28;46810;-64
2022/11/09 04:35:32;;;;;;;;;0.00;0.00;;;;;13.01;73.29;100484.81;5034653;28;45848;-66
2022/11/09 04:38:04;;;;;;;;;1.00;0.00;;;;;13.07;73.74;100493.47;5034577;28;45541;-67
2022/11/09 04:40:31;;;;;;;;;0.00;0.00;;;;;13.10;73.31;100496.06;5034486;28;45524;-66
2022/11/09 04:43:14;;;;;;;;;0.33;0.33;;;;;13.05;73.84;100504.88;5033849;28;45536;-66
2022/11/09 04:45:46;;;;;;;;;0.00;0.00;;;;;12.96;73.50;100487.47;5034411;28;45801;-69
2022/11/09 04:48:12;;;;;;;;;0.00;0.00;;;;;12.77;74.11;100457.91;5034367;28;45447;-65
2022/11/09 04:50:37;;;;;;;;;0.33;0.00;;;;;13.03;73.62;100501.44;5038756;28;45333;-64
2022/11/09 04:53:08;;;;;;;;;0.33;0.00;;;;;12.97;74.26;100504.97;5037094;28;46194;-65
2022/11/09 04:55:37;;;;;;;;;1.00;0.00;;;;;13.01;74.10;100505.84;5038384;28;45400;-66
2022/11/09 04:58:02;;;;;;;;;0.33;0.33;;;;;12.97;73.75;100504.97;5037377;28;45342;-66
2022/11/09 05:00:29;;;;;;;;;1.00;1.00;;;;;13.01;73.65;100509.31;5038580;28;45281;-65
2022/11/09 05:02:57;;;;;;;;;1.33;1.00;;;;;12.94;73.51;100498.00;5038473;28;46181;-66
2022/11/09 05:05:23;;;;;;;;;0.00;0.00;;;;;13.01;73.48;100498.81;5038037;28;45447;-65
2022/11/09 05:07:48;;;;;;;;;0.00;0.00;;;;;13.07;73.05;100495.22;5033543;28;45482;-66
2022/11/09 05:10:20;;;;;;;;;2.00;0.00;;;;;13.04;73.34;100482.13;5034231;28;45407;-69
2022/11/09 05:12:49;;;;;;;;;1.00;0.00;;;;;13.02;73.42;100490.03;5038462;28;46287;-69
2022/11/09 05:15:24;;;;;;;;;0.00;0.00;;;;;12.68;73.32;100415.97;5038156;28;45416;-69
2022/11/09 05:18:00;;;;;;;;;1.00;0.00;;;;;12.98;72.75;100471.66;5024800;28;45973;-69
2022/11/09 05:20:36;;;;;;;;;0.00;0.00;;;;;13.21;73.11;100511.69;5034087;28;45519;-69
2022/11/09 05:25:50;;;;;;;;;0.67;0.00;;;;;13.14;72.96;100516.19;5038034;28;45377;-67
2022/11/09 05:28:24;;;;;;;;;1.00;0.00;;;;;13.10;73.54;100508.34;5038311;28;45366;-70
2022/11/09 05:30:49;;;;;;;;;2.00;0.50;;;;;12.96;72.92;100484.84;5037562;28;45640;-68
2022/11/09 05:33:16;;;;;;;;;2.00;2.00;;;;;13.16;73.26;100508.25;5036401;28;45822;-68
2022/11/09 05:35:41;;;;;;;;;1.00;0.00;;;;;13.13;73.20;100513.56;5032872;28;45477;-68
2022/11/09 05:38:07;;;;;;;;;2.00;0.67;;;;;13.07;73.10;100509.22;5034538;28;45423;-68
2022/11/09 05:40:33;;;;;;;;;1.33;1.33;;;;;13.04;73.34;100506.66;5037885;28;45398;-65
2022/11/09 05:42:59;;;;;;;;;1.00;1.00;;;;;13.10;73.51;100519.75;5034499;28;45482;-63
2022/11/09 05:45:24;;;;;;;;;0.33;0.33;;;;;13.14;73.59;100513.56;5033515;28;45453;-65
2022/11/09 05:47:50;;;;;;;;;0.67;0.67;;;;;13.02;73.69;100507.56;5036967;28;45552;-64
2022/11/09 05:50:15;;;;;;;;;4.00;2.00;;;;;13.02;73.82;100511.06;5036210;28;45472;-65
2022/11/09 05:52:41;;;;;;;;;0.00;0.00;;;;;13.08;73.72;100520.66;5050764;28;46257;-67
2022/11/09 05:55:07;;;;;;;;;2.33;1.00;;;;;13.06;74.20;100523.28;5033296;28;45342;-66
2022/11/09 05:57:33;;;;;;;;;2.67;1.00;;;;;13.10;73.64;100529.41;5033585;28;45908;-66
2022/11/09 05:59:58;;;;;;;;;3.67;1.33;;;;;13.06;74.52;100532.94;5048889;28;45426;-64
2022/11/09 06:02:24;;;;;;;;;2.00;0.33;;;;;12.96;74.81;100523.44;5032987;28;45355;-64
2022/11/09 06:04:49;;;;;;;;;2.33;0.67;;;;;13.03;74.71;100540.88;5033544;28;45730;-65
2022/11/09 06:07:15;;;;;;;;;2.67;1.33;;;;;13.10;74.00;100546.03;5037443;28;45448;-64
2022/11/09 06:09:41;;;;;;;;;1.00;1.00;;;;;13.14;74.33;100541.59;5049432;28;45492;-64
2022/11/09 06:12:06;;;;;;;;;2.67;1.00;;;;;13.09;74.43;100538.16;5035601;28;46454;-65
2022/11/09 06:14:32;;;;;;;;;3.33;2.00;;;;;12.95;75.12;100514.63;5036767;28;45632;-64
2022/11/09 06:16:57;;;;;;;;;3.00;1.00;;;;;12.92;75.68;100518.19;5032991;28;45417;-66
2022/11/09 06:19:24;;;;;;;;;1.00;1.00;;;;;12.90;75.69;100530.47;5033324;28;45627;-65
2022/11/09 06:21:50;;;;;;;;;3.00;2.00;;;;;12.90;75.34;100526.97;5032496;28;45742;-67
2022/11/09 06:24:15;;;;;;;;;0.67;0.67;;;;;12.93;75.82;100534.81;5032141;28;45497;-66
2022/11/09 06:26:41;;;;;;;;;2.00;1.00;;;;;12.91;76.01;100541.88;5032598;28;45543;-68
2022/11/09 06:29:06;;;;;;;;;3.33;1.00;;;;;12.97;75.88;100557.56;5021305;28;45446;-66
2022/11/09 06:31:32;;;;;;;;;2.00;1.67;;;;;12.92;76.08;100540.97;5030302;28;46010;-66
2022/11/09 06:33:58;;;;;;;;;4.00;1.00;;;;;12.96;76.21;100555.84;5032674;28;45421;-67
2022/11/09 06:36:23;;;;;;;;;3.00;3.00;;;;;12.82;75.99;100547.22;5049355;28;45349;-64
2022/11/09 06:38:50;;;;;;;;;4.00;2.00;;;;;12.93;76.35;100567.25;5029040;28;45404;-65
2022/11/09 06:41:16;;;;;;;;;3.67;2.00;;;;;12.85;76.37;100548.03;5049002;28;47812;-64
2022/11/09 06:43:42;;;;;;;;;3.33;2.00;;;;;12.94;76.79;100573.38;5032351;28;45700;-69
2022/11/09 06:46:09;;;;;;;;;3.00;1.67;;;;;12.97;76.37;100575.09;5032051;28;45624;-64
2022/11/09 06:48:36;;;;;;;;;1.67;1.67;;;;;13.00;76.40;100573.28;5030736;28;45528;-65
2022/11/09 06:51:03;;;;;;;;;6.00;3.00;;;;;12.98;76.50;100576.81;5031713;28;45789;-64
2022/11/09 06:53:30;;;;;;;;;3.33;2.00;;;;;13.00;76.49;100577.69;5036466;28;45257;-67
2022/11/09 06:55:59;;;;;;;;;2.67;2.00;;;;;13.02;76.64;100589.94;5033090;28;45520;-65
2022/11/09 06:58:25;;;;;;;;;3.67;2.00;;;;;13.00;76.04;100575.91;5030777;28;45635;-67
2022/11/09 07:00:51;;;;;;;;;4.33;1.00;;;;;13.11;76.32;100586.34;5031445;28;46056;-64
2022/11/09 07:03:19;;;;;;;;;1.33;1.33;;;;;13.13;75.99;100582.81;5022884;28;45800;-66
2022/11/09 07:05:45;;;;;;;;;5.00;3.00;;;;;13.16;76.60;100589.78;5034548;28;45813;-65
2022/11/09 07:08:13;;;;;;;;;3.00;3.00;;;;;13.14;76.75;100583.66;5032331;28;45388;-64
2022/11/09 07:10:39;;;;;;;;;5.33;2.67;;;;;13.10;76.69;100576.72;5034878;28;45492;-64
2022/11/09 07:13:06;;;;;;;;;3.67;2.00;;;;;13.21;75.92;100598.50;5035782;28;45500;-67
2022/11/09 07:15:33;;;;;;;;;6.00;3.33;;;;;13.16;76.57;100606.44;5034067;28;45509;-68
2022/11/09 07:18:01;;;;;;;;;2.00;2.00;;;;;13.21;76.25;100608.16;5036135;28;45501;-69
2022/11/09 07:20:27;;;;;;;;;5.67;3.00;;;;;13.20;76.07;100614.31;5035574;28;45613;-68
2022/11/09 07:22:54;;;;;;;;;3.00;1.67;;;;;13.32;76.47;100624.72;5035257;28;45720;-65
2022/11/09 07:25:20;;;;;;;;;5.00;3.00;;;;;13.39;75.73;100610.63;5038167;28;45568;-64
2022/11/09 07:27:47;;;;;;;;;6.33;2.33;;;;;13.50;75.87;100624.53;5035435;28;46303;-70
2022/11/09 07:30:13;;;;;;;;;3.67;2.00;;;;;13.53;75.71;100634.13;5042509;28;48035;-67
2022/11/09 07:32:39;;;;;;;;;5.33;4.00;;;;;13.52;75.52;100635.88;5035591;28;45543;-66
2022/11/09 07:35:06;;;;;;;;;3.67;3.67;;;;;13.52;75.74;100633.25;5036115;28;45408;-65
2022/11/09 07:37:32;;;;;;;;;5.00;3.00;;;;;13.49;75.64;100629.78;5035382;28;45497;-67
2022/11/09 07:39:57;;;;;;;;;4.33;2.00;;;;;13.52;75.53;100630.59;5034148;28;46127;-69
2022/11/09 07:42:23;;;;;;;;;5.00;3.00;;;;;13.63;75.29;100635.75;5033515;28;45530;-64
2022/11/09 07:44:52;;;;;;;;;6.00;3.00;;;;;13.72;75.26;100635.66;5038892;28;45417;-64
2022/11/09 07:47:19;;;;;;;;;4.00;3.00;;;;;13.83;74.49;100637.25;5039558;28;45481;-64
2022/11/09 07:49:45;;;;;;;;;2.67;2.33;;;;;13.85;74.18;100628.44;5038772;28;46085;-67
2022/11/09 07:52:11;;;;;;;;;2.00;2.00;;;;;13.81;74.61;100628.50;5028685;28;45676;-67
2022/11/09 07:54:38;;;;;;;;;4.00;3.33;;;;;13.91;74.42;100640.69;5038465;28;45299;-65
2022/11/09 07:57:03;;;;;;;;;2.00;2.00;;;;;13.95;74.00;100632.72;5036418;28;45512;-65
2022/11/09 07:59:30;;;;;;;;;2.00;2.00;;;;;14.06;74.00;100642.22;5034081;28;45559;-65
2022/11/09 08:01:56;;;;;;;;;6.00;3.00;;;;;14.15;73.06;100636.84;5049384;28;45936;-68
2022/11/09 08:04:22;;;;;;;;;5.00;5.00;;;;;14.33;73.19;100643.59;5025102;28;45694;-66
2022/11/09 08:06:51;;;;;;;;;5.00;3.00;;;;;15.02;71.16;100651.28;5034736;28;45309;-65
2022/11/09 08:09:17;;;;;;;;;4.00;3.00;;;;;15.84;69.16;100652.38;5033584;28;45528;-65
2022/11/09 08:11:43;;;;;;;;;3.33;3.33;;;;;16.40;66.33;100658.19;5037682;28;45461;-65
2022/11/09 08:14:08;;;;;;;;;8.33;5.00;;;;;17.03;64.31;100630.19;5034749;28;45513;-69
2022/11/09 08:16:34;;;;;;;;;9.00;4.00;;;;;17.04;63.35;100652.25;5034751;28;45425;-65
2022/11/09 08:19:00;;;;;;;;;3.33;3.00;;;;;16.80;64.21;100662.56;5033969;28;46227;-64
2022/11/09 08:21:25;;;;;;;;;3.67;3.00;;;;;16.52;64.75;100663.19;5050263;28;45704;-66
2022/11/09 08:23:51;;;;;;;;;8.33;4.00;;;;;16.31;65.44;100658.41;5034764;28;45439;-66
2022/11/09 08:26:16;;;;;;;;;4.67;3.33;;;;;15.88;66.06;100654.94;5035770;28;45491;-64
2022/11/09 08:28:42;;;;;;;;;4.00;3.67;;;;;15.85;66.91;100662.03;5028712;28;45493;-68
2022/11/09 08:31:08;;;;;;;;;4.33;3.67;;;;;16.34;65.90;100660.97;5039052;28;45426;-67
2022/11/09 08:33:39;;;;;;;;;5.00;3.00;;;;;17.00;64.16;100669.97;5034947;28;45336;-67
2022/11/09 08:36:14;;;;;;;;;2.67;1.67;;;;;17.36;63.16;100664.63;5048296;28;45287;-70
2022/11/09 08:38:40;;;;;;;;;1.67;1.67;;;;;17.65;61.68;100655.00;5038210;28;46691;-66
2022/11/09 08:41:05;;;;;;;;;10.33;3.33;;;;;17.61;61.65;100664.81;5038495;28;45436;-68
2022/11/09 08:43:31;;;;;;;;;4.67;3.00;;;;;17.42;61.85;100674.19;5038815;28;45493;-68
2022/11/09 08:45:57;;;;;;;;;3.33;3.33;;;;;17.13;62.38;100674.06;5036455;28;45333;-65
2022/11/09 08:48:22;;;;;;;;;3.33;3.33;;;;;17.01;62.93;100677.00;5033464;28;45834;-66
2022/11/09 08:50:56;;;;;;;;;4.00;3.00;;;;;17.24;62.66;100673.75;5036926;28;45378;-69
2022/11/09 08:53:24;;;;;;;;;4.00;2.00;;;;;17.46;62.36;100679.34;5036619;28;45450;-67
2022/11/09 08:55:49;;;;;;;;;2.33;2.33;;;;;17.53;61.90;100687.97;5037224;28;45711;-68
2022/11/09 08:58:15;;;;;;;;;5.00;2.00;;;;;17.59;61.50;100698.44;5033741;28;46127;-66
2022/11/09 09:00:41;;;;;;;;;2.67;2.00;;;;;17.54;61.66;100689.75;5034136;28;45807;-69
2022/11/09 09:03:07;;;;;;;;;4.00;2.00;;;;;18.09;60.74;100697.94;5036237;28;45506;-67
2022/11/09 09:05:34;;;;;;;;;0.00;0.00;;;;;18.63;59.13;100700.66;5032278;28;45399;-69
2022/11/09 09:08:01;;;;;;;;;3.00;3.00;;;;;18.80;58.30;100705.44;5033927;28;46396;-67
2022/11/09 09:10:27;;;;;;;;;4.67;3.67;;;;;18.67;58.42;100705.84;5033860;28;45820;-69
2022/11/09 09:12:53;;;;;;;;;4.33;1.67;;;;;18.39;58.94;100712.03;5025972;28;45356;-69
2022/11/09 09:15:19;;;;;;;;;4.33;2.00;;;;;18.10;59.53;100697.84;5035943;28;45478;-65
2022/11/09 09:17:49;;;;;;;;;3.00;2.00;;;;;18.21;59.32;100714.31;5035734;28;46415;-67
2022/11/09 09:20:16;;;;;;;;;4.00;2.00;;;;;18.51;58.27;100694.84;5037607;28;45440;-64
2022/11/09 09:22:42;;;;;;;;;3.33;2.00;;;;;18.65;57.99;100698.81;5033904;28;45498;-66
2022/11/09 09:25:08;;;;;;;;;4.67;2.00;;;;;18.60;58.00;100718.44;5035595;28;45308;-69
2022/11/09 09:27:34;;;;;;;;;5.33;2.33;;;;;18.38;58.23;100700.53;5038685;28;45542;-67
2022/11/09 09:29:59;;;;;;;;;1.67;1.00;;;;;18.30;58.59;100720.28;5037561;28;45497;-70
2022/11/09 09:32:26;;;;;;;;;3.00;1.67;;;;;18.11;58.96;100718.16;5069391;27;45401;-71
2022/11/09 09:34:51;;;;;;;;;2.00;2.00;;;;;18.02;59.26;100719.28;5038181;28;45500;-68
2022/11/09 09:37:19;;;;;;;;;2.00;2.00;;;;;17.89;59.71;100724.97;5044721;28;46856;-69
2022/11/09 09:39:45;;;;;;;;;4.00;2.00;;;;;17.65;59.64;100724.72;5035532;28;45394;-66
2022/11/09 09:42:31;;;;;;;;;2.33;1.33;;;;;17.43;60.28;100702.41;5047277;28;45785;-69
2022/11/09 09:45:26;;;;;;;;;4.00;2.00;;;;;17.61;60.39;100728.38;5036486;28;45677;-69
2022/11/09 09:48:36;;;;;;;;;4.33;2.00;;;;;17.96;59.58;100734.50;5047177;28;45771;-68
2022/11/09 09:51:29;;;;;;;;;3.33;3.33;;;;;17.95;58.87;100746.03;5026063;28;45412;-63
2022/11/09 09:54:11;;;;;;;;;3.33;2.00;;;;;17.90;59.30;100746.16;5047963;28;45353;-67
2022/11/09 09:56:44;;;;;;;;;2.67;2.67;;;;;18.02;59.10;100744.94;5032450;28;45695;-65
2022/11/09 09:59:10;;;;;;;;;5.33;2.67;;;;;18.30;58.42;100744.13;5032396;28;45664;-65
2022/11/09 10:01:39;;;;;;;;;5.67;2.33;;;;;18.51;58.04;100753.19;5032438;28;45501;-66
2022/11/09 10:04:23;;;;;;;;;4.00;2.00;;;;;19.00;57.03;100741.06;5030919;28;45393;-67
2022/11/09 10:06:49;;;;;;;;;3.00;2.33;;;;;19.54;55.39;100744.56;5031622;28;45387;-66
2022/11/09 10:09:37;;;;;;;;;3.67;2.00;;;;;20.62;52.47;100755.69;5032012;28;46125;-65
2022/11/09 10:12:10;;;;;;;;;2.67;2.33;;;;;21.64;50.09;100751.50;5035026;28;45740;-63
2022/11/09 10:14:54;;;;;;;;;3.67;1.33;;;;;22.19;48.67;100757.03;5035583;28;45604;-67
2022/11/09 10:17:52;;;;;;;;;1.67;1.00;;;;;23.22;46.46;100757.47;5021540;28;45944;-66
2022/11/09 10:20:30;;;;;;;;;2.00;1.00;;;;;24.07;44.01;100760.19;5037616;28;45678;-67
2022/11/09 10:23:05;;;;;;;;;1.00;1.00;;;;;24.81;43.11;100769.53;5032862;28;45520;-68
2022/11/09 10:25:36;;;;;;;;;1.67;1.00;;;;;25.51;41.06;100753.84;5024709;28;45500;-65
2022/11/09 10:28:08;;;;;;;;;2.00;1.00;;;;;25.77;40.67;100763.00;5024058;28;45762;-65
2022/11/09 10:30:34;;;;;;;;;3.00;2.50;;;;;27.44;37.57;100762.13;5031336;28;45516;-66
2022/11/09 10:33:14;;;;;;;;;2.00;2.00;;;;;26.70;36.77;100768.00;5019234;28;45709;-69
2022/11/09 10:35:48;;;;;;;;;3.00;1.50;;;;;25.91;39.46;100763.97;5022322;28;45877;-65
2022/11/09 10:38:29;;;;;;;;;3.25;1.50;;;;;24.36;41.88;100744.34;5024591;28;45493;-65
2022/11/09 10:41:03;;;;;;;;;3.50;2.00;;;;;23.05;43.92;100783.22;5036455;28;46201;-65
2022/11/09 10:43:28;;;;;;;;;2.00;2.00;;;;;22.03;45.95;100784.38;5032513;28;45508;-64
2022/11/09 10:46:07;;;;;;;;;1.75;1.00;;;;;21.18;47.99;100788.91;5032461;28;45936;-66
2022/11/09 10:48:36;;;;;;;;;2.00;2.00;;;;;21.04;47.96;100791.28;5050101;28;45570;-66
2022/11/09 10:51:02;;;;;;;;;2.00;1.00;;;;;21.13;48.14;100783.78;5031873;28;46123;-66
2022/11/09 10:53:32;;;;;;;;;2.33;2.00;;;;;21.47;47.03;100786.88;5036493;28;45441;-66
2022/11/09 10:56:11;;;;;;;;;4.00;2.00;;;;;20.95;48.28;100793.41;5038565;28;46522;-67
2022/11/09 10:58:48;;;;;;;;;4.00;3.00;;;;;22.30;45.46;100796.56;5039659;28;45587;-64
2022/11/09 11:01:20;;;;;;;;;6.67;2.67;;;;;22.56;43.56;100787.34;5037701;28;45351;-66
2022/11/09 11:03:53;;;;;;;;;2.00;1.00;;;;;24.13;41.49;100802.69;5035244;28;45457;-67
2022/11/09 11:06:21;;;;;;;;;4.00;1.33;;;;;25.66;38.70;100808.38;5038809;28;45337;-65
2022/11/09 11:08:51;;;;;;;;;6.00;2.00;;;;;24.12;41.08;100787.56;5039700;28;45592;-64
2022/11/09 11:11:26;;;;;;;;;5.00;3.00;;;;;24.80;39.28;100816.03;5037835;28;45579;-66
2022/11/09 11:14:10;;;;;;;;;3.50;2.00;;;;;26.17;38.36;100830.34;5034786;28;45534;-66
2022/11/09 11:16:37;;;;;;;;;2.00;1.00;;;;;27.68;35.66;100780.25;5023189;28;45276;-68
2022/11/09 11:19:03;;;;;;;;;2.00;2.00;;;;;28.07;34.54;100800.00;5035265;28;45512;-67
2022/11/09 11:21:30;;;;;;;;;3.00;1.00;;;;;26.04;37.13;100801.69;5028505;28;47671;-65
2022/11/09 11:24:08;;;;;;;;;2.00;1.00;;;;;24.51;40.44;100806.91;5022912;28;45561;-66
2022/11/09 11:26:44;;;;;;;;;1.25;1.25;;;;;23.24;42.20;100811.72;5034412;28;45374;-67
2022/11/09 11:29:32;;;;;;;;;2.00;2.00;;;;;22.03;44.86;100811.06;5035475;28;45756;-67
2022/11/09 11:31:58;;;;;;;;;2.00;1.00;;;;;21.30;46.54;100808.84;5035106;28;45764;-66